createdAt,value
2022-12-31T00:00:07.461Z,1.33
2022-12-31T00:02:34.954Z,1.45
2022-12-31T00:05:02.327Z,1.30
2022-12-31T00:07:29.520Z,1.67
2022-12-31T00:09:56.734Z,1.83
2022-12-31T00:12:23.969Z,1.80
2022-12-31T00:14:51.291Z,2.20
2022-12-31T00:17:18.478Z,1.95
2022-12-31T00:19:45.745Z,1.67
2022-12-31T00:22:12.985Z,1.52
2022-12-31T00:24:40.194Z,1.65
2022-12-31T00:27:07.636Z,2.00
2022-12-31T00:29:34.922Z,2.35
2022-12-31T00:32:02.100Z,1.45
2022-12-31T00:34:29.310Z,2.60
2022-12-31T00:36:56.614Z,2.35
2022-12-31T00:39:23.945Z,2.67
2022-12-31T00:41:51.228Z,1.85
2022-12-31T00:44:18.623Z,2.13
2022-12-31T00:49:11.952Z,2.42
2022-12-31T00:51:39.195Z,2.05
2022-12-31T00:54:06.403Z,1.35
2022-12-31T00:56:33.796Z,2.33
2022-12-31T00:59:00.980Z,2.25
2022-12-31T01:01:28.404Z,2.00
2022-12-31T01:03:55.801Z,1.83
2022-12-31T01:06:23.117Z,1.77
2022-12-31T01:08:50.329Z,1.52
2022-12-31T01:11:23.715Z,1.33
2022-12-31T01:13:51.177Z,1.75
2022-12-31T01:16:18.412Z,1.67
2022-12-31T01:18:45.668Z,2.00
2022-12-31T01:21:12.952Z,3.15
2022-12-31T01:23:40.235Z,1.92
2022-12-31T01:26:07.409Z,2.92
2022-12-31T01:28:35.360Z,1.88
2022-12-31T01:31:02.559Z,1.98
2022-12-31T01:33:29.973Z,1.88
2022-12-31T01:35:57.192Z,4.45
2022-12-31T01:38:24.615Z,2.47
2022-12-31T01:40:51.819Z,1.92
2022-12-31T01:43:19.040Z,2.00
2022-12-31T01:45:46.554Z,2.10
2022-12-31T01:48:13.829Z,1.70
2022-12-31T01:50:41.029Z,2.60
2022-12-31T01:53:08.222Z,3.70
2022-12-31T01:55:35.431Z,1.50
2022-12-31T01:58:02.731Z,2.20
2022-12-31T02:00:30.025Z,1.80
2022-12-31T02:02:57.276Z,2.75
2022-12-31T02:05:24.545Z,1.48
2022-12-31T02:07:51.828Z,2.97
2022-12-31T02:10:19.057Z,1.70
2022-12-31T02:12:46.353Z,1.75
2022-12-31T02:15:13.598Z,2.40
2022-12-31T02:17:40.837Z,2.13
2022-12-31T02:20:08.079Z,1.50
2022-12-31T02:22:35.390Z,1.75
2022-12-31T02:25:02.611Z,1.23
2022-12-31T02:27:29.996Z,0.88
2022-12-31T02:29:57.207Z,1.42
2022-12-31T02:32:24.437Z,1.63
2022-12-31T02:34:51.673Z,1.58
2022-12-31T02:37:19.019Z,2.95
2022-12-31T02:39:46.253Z,1.05
2022-12-31T02:42:13.488Z,0.90
2022-12-31T02:44:40.765Z,1.60
2022-12-31T02:47:08.033Z,1.50
2022-12-31T02:49:35.224Z,2.88
2022-12-31T02:52:02.506Z,1.17
2022-12-31T02:54:29.695Z,1.20
2022-12-31T02:56:56.949Z,2.00
2022-12-31T02:59:43.091Z,1.40
2022-12-31T03:02:16.939Z,1.10
2022-12-31T03:04:44.353Z,1.40
2022-12-31T03:07:11.573Z,1.08
2022-12-31T03:09:38.821Z,0.80
2022-12-31T03:12:24.935Z,1.10
2022-12-31T03:14:52.127Z,2.40
2022-12-31T03:17:19.316Z,0.63
2022-12-31T03:20:05.301Z,0.80
2022-12-31T03:22:32.545Z,0.80
2022-12-31T03:25:18.486Z,0.75
2022-12-31T03:27:45.724Z,0.40
2022-12-31T03:30:12.954Z,0.47
2022-12-31T03:32:41.542Z,0.60
2022-12-31T03:35:08.725Z,0.47
2022-12-31T03:37:35.985Z,0.40
2022-12-31T03:40:03.491Z,0.20
2022-12-31T03:42:30.764Z,0.10
2022-12-31T03:44:57.942Z,0.30
2022-12-31T03:47:25.146Z,0.20
2022-12-31T03:49:52.386Z,0.10
2022-12-31T03:52:19.621Z,0.28
2022-12-31T03:54:46.848Z,0.22
2022-12-31T03:57:14.180Z,0.00
2022-12-31T03:59:41.405Z,0.20
2022-12-31T04:02:08.662Z,0.10
2022-12-31T04:04:35.977Z,0.10
2022-12-31T04:07:03.312Z,0.00
2022-12-31T04:09:30.475Z,0.00
2022-12-31T04:11:57.707Z,0.00
2022-12-31T04:14:24.965Z,0.10
2022-12-31T04:16:52.206Z,0.10
2022-12-31T04:19:19.392Z,0.10
2022-12-31T04:21:46.756Z,0.10
2022-12-31T04:24:14.006Z,0.20
2022-12-31T04:26:41.212Z,0.10
2022-12-31T04:29:08.406Z,0.03
2022-12-31T04:31:35.742Z,0.22
2022-12-31T04:34:02.991Z,0.20
2022-12-31T04:36:30.214Z,0.40
2022-12-31T04:38:57.386Z,0.13
2022-12-31T04:41:27.064Z,0.45
2022-12-31T04:43:54.278Z,0.40
2022-12-31T04:46:21.579Z,0.40
2022-12-31T04:48:48.833Z,0.30
2022-12-31T04:51:16.117Z,0.60
2022-12-31T04:53:43.283Z,0.93
2022-12-31T04:56:10.589Z,1.02
2022-12-31T04:58:37.975Z,0.88
2022-12-31T05:01:05.423Z,1.30
2022-12-31T05:03:32.683Z,3.38
2022-12-31T05:05:59.931Z,1.70
2022-12-31T05:08:27.115Z,1.40
2022-12-31T05:10:54.335Z,2.10
2022-12-31T05:13:25.718Z,2.00
2022-12-31T05:15:56.690Z,2.20
2022-12-31T05:18:23.929Z,2.97
2022-12-31T05:20:51.152Z,2.97
2022-12-31T05:23:18.342Z,2.05
2022-12-31T05:25:45.638Z,5.57
2022-12-31T05:28:12.813Z,2.00
2022-12-31T05:30:40.069Z,1.90
2022-12-31T05:33:07.308Z,2.20
2022-12-31T05:35:34.580Z,2.10
2022-12-31T05:38:01.734Z,2.88
2022-12-31T05:40:29.051Z,1.75
2022-12-31T05:42:56.266Z,2.60
2022-12-31T05:45:30.098Z,1.50
2022-12-31T05:50:25.455Z,1.58
2022-12-31T05:52:56.365Z,1.45
2022-12-31T05:55:23.686Z,1.55
2022-12-31T05:57:50.876Z,1.60
2022-12-31T06:00:18.122Z,1.42
2022-12-31T06:02:45.499Z,2.15
2022-12-31T06:05:12.811Z,2.42
2022-12-31T06:07:40.047Z,2.28
2022-12-31T06:10:07.333Z,2.22
2022-12-31T06:12:34.570Z,2.05
2022-12-31T06:15:01.985Z,1.73
2022-12-31T06:17:32.480Z,2.17
2022-12-31T06:19:59.918Z,2.05
2022-12-31T06:22:27.082Z,1.73
2022-12-31T06:24:54.578Z,2.75
2022-12-31T06:27:21.797Z,3.47
2022-12-31T06:29:49.494Z,2.50
2022-12-31T06:32:16.675Z,4.30
2022-12-31T06:34:43.937Z,3.38
2022-12-31T06:37:11.177Z,3.42
2022-12-31T06:39:38.450Z,4.03
2022-12-31T06:42:05.616Z,3.05
2022-12-31T06:44:32.959Z,2.90
2022-12-31T06:47:00.254Z,3.22
2022-12-31T06:49:27.942Z,3.47
2022-12-31T06:51:55.146Z,2.85
2022-12-31T06:54:22.435Z,2.22
2022-12-31T06:56:49.675Z,2.75
2022-12-31T06:59:17.119Z,3.25
2022-12-31T07:01:44.582Z,2.45
2022-12-31T07:04:11.969Z,3.95
2022-12-31T07:06:39.230Z,2.25
2022-12-31T07:09:06.494Z,2.30
2022-12-31T07:11:33.898Z,2.55
2022-12-31T07:14:01.198Z,2.03
2022-12-31T07:16:28.507Z,3.80
2022-12-31T07:18:55.866Z,1.65
2022-12-31T07:21:23.080Z,2.10
2022-12-31T07:23:50.523Z,1.83
2022-12-31T07:26:17.834Z,2.00
2022-12-31T07:28:45.075Z,2.80
2022-12-31T07:31:12.449Z,2.92
2022-12-31T07:33:39.698Z,3.50
2022-12-31T07:36:06.908Z,2.92
2022-12-31T07:38:34.217Z,2.03
2022-12-31T07:41:07.423Z,2.83
2022-12-31T07:43:37.045Z,2.05
2022-12-31T07:46:04.329Z,2.80
2022-12-31T07:48:31.536Z,2.72
2022-12-31T07:50:58.840Z,3.40
2022-12-31T07:53:26.179Z,2.65
2022-12-31T07:55:53.372Z,3.10
2022-12-31T07:58:20.622Z,2.47
2022-12-31T08:00:48.168Z,3.28
2022-12-31T08:03:15.406Z,2.33
2022-12-31T08:05:43.188Z,3.75
2022-12-31T08:08:10.523Z,2.28
2022-12-31T08:10:37.772Z,2.80
2022-12-31T08:13:04.937Z,4.13
2022-12-31T08:15:32.141Z,2.58
2022-12-31T08:17:59.320Z,3.00
2022-12-31T08:20:26.637Z,3.70
2022-12-31T08:22:53.883Z,2.15
2022-12-31T08:25:21.091Z,2.42
2022-12-31T08:27:48.301Z,3.28
2022-12-31T08:30:15.554Z,3.10
2022-12-31T08:32:42.749Z,2.80
2022-12-31T08:35:09.975Z,2.90
2022-12-31T08:37:37.134Z,4.22
2022-12-31T08:40:04.399Z,4.20
2022-12-31T08:42:31.738Z,2.55
2022-12-31T08:44:59.025Z,2.92
2022-12-31T08:47:26.242Z,3.22
2022-12-31T08:49:53.762Z,2.97
2022-12-31T08:52:20.983Z,3.47
2022-12-31T08:54:48.585Z,2.63
2022-12-31T08:57:15.938Z,4.22
2022-12-31T08:59:43.170Z,4.82
2022-12-31T09:02:10.525Z,3.33
2022-12-31T09:04:37.881Z,3.28
2022-12-31T09:07:05.102Z,3.70
2022-12-31T09:09:32.858Z,2.78
2022-12-31T09:12:00.137Z,4.38
2022-12-31T09:14:27.431Z,3.13
2022-12-31T09:16:54.690Z,5.80
2022-12-31T09:19:21.953Z,4.40
2022-12-31T09:21:49.161Z,3.80
2022-12-31T09:24:16.403Z,3.08
2022-12-31T09:26:43.650Z,4.03
2022-12-31T09:29:10.838Z,4.05
2022-12-31T09:31:38.084Z,2.75
2022-12-31T09:34:05.334Z,4.85
2022-12-31T09:36:32.704Z,4.47
2022-12-31T09:38:59.927Z,2.80
2022-12-31T09:41:27.184Z,4.03
2022-12-31T09:43:59.026Z,3.53
2022-12-31T09:46:28.356Z,2.95
2022-12-31T09:48:55.536Z,4.38
2022-12-31T09:51:25.558Z,4.13
2022-12-31T09:53:53.046Z,3.78
2022-12-31T09:56:20.266Z,3.53
2022-12-31T09:58:47.470Z,4.30
2022-12-31T10:01:14.758Z,3.58
2022-12-31T10:03:42.175Z,3.45
2022-12-31T10:06:09.335Z,2.95
2022-12-31T10:08:37.422Z,3.17
2022-12-31T10:11:04.652Z,3.53
2022-12-31T10:13:31.997Z,3.05
2022-12-31T10:15:59.261Z,3.17
2022-12-31T10:18:26.569Z,2.30
2022-12-31T10:20:53.864Z,1.90
2022-12-31T10:23:22.351Z,1.75
2022-12-31T10:25:49.564Z,1.92
2022-12-31T10:28:18.794Z,1.55
2022-12-31T10:30:46.040Z,4.00
2022-12-31T10:33:13.328Z,1.20
2022-12-31T10:35:40.492Z,1.45
2022-12-31T10:38:07.790Z,1.50
2022-12-31T10:40:35.200Z,1.38
2022-12-31T10:43:02.421Z,1.63
2022-12-31T10:45:29.599Z,1.05
2022-12-31T10:47:56.895Z,1.17
2022-12-31T10:50:24.084Z,1.20
2022-12-31T10:52:51.340Z,1.10
2022-12-31T10:55:18.637Z,1.85
2022-12-31T10:57:45.832Z,2.15
2022-12-31T11:00:13.100Z,0.98
2022-12-31T11:02:40.414Z,0.80
2022-12-31T11:05:07.735Z,1.05
2022-12-31T11:07:34.981Z,0.52
2022-12-31T11:10:02.206Z,0.70
2022-12-31T11:12:29.424Z,0.70
2022-12-31T11:14:56.677Z,1.52
2022-12-31T11:17:23.930Z,0.65
2022-12-31T11:19:51.141Z,0.55
2022-12-31T11:22:20.402Z,0.45
2022-12-31T11:24:47.620Z,0.80
2022-12-31T11:27:14.871Z,0.65
2022-12-31T11:29:42.044Z,0.50
2022-12-31T11:32:09.399Z,0.50
2022-12-31T11:34:36.616Z,0.40
2022-12-31T11:37:03.878Z,0.45
2022-12-31T11:39:31.647Z,0.40
2022-12-31T11:41:58.926Z,0.40
2022-12-31T11:44:26.232Z,0.40
2022-12-31T11:46:53.453Z,0.13
2022-12-31T11:49:20.682Z,0.30
2022-12-31T11:51:50.701Z,0.30
2022-12-31T11:54:18.197Z,0.20
2022-12-31T11:56:45.462Z,0.50
2022-12-31T11:59:19.043Z,0.30
2022-12-31T12:01:46.866Z,0.30
2022-12-31T12:04:14.317Z,1.02
2022-12-31T12:06:42.871Z,2.08
2022-12-31T12:09:10.082Z,1.02
2022-12-31T12:11:37.285Z,1.70
2022-12-31T12:14:04.542Z,1.92
2022-12-31T12:16:32.016Z,3.15
2022-12-31T12:18:59.347Z,3.08
2022-12-31T12:21:26.591Z,3.10
2022-12-31T12:23:54.429Z,3.40
2022-12-31T12:26:21.629Z,3.08
2022-12-31T12:28:48.922Z,3.10
2022-12-31T12:31:16.174Z,2.80
2022-12-31T12:33:43.559Z,2.53
2022-12-31T12:36:10.864Z,4.45
2022-12-31T12:38:38.137Z,3.70
2022-12-31T12:41:05.356Z,2.90
2022-12-31T12:43:32.674Z,3.45
2022-12-31T12:46:00.140Z,2.65
2022-12-31T12:48:27.382Z,3.30
2022-12-31T12:50:54.632Z,3.58
2022-12-31T12:53:21.950Z,3.88
2022-12-31T12:55:49.134Z,4.07
2022-12-31T12:58:19.359Z,4.07
2022-12-31T13:00:46.921Z,3.70
2022-12-31T13:03:14.123Z,2.85
2022-12-31T13:05:41.368Z,4.78
2022-12-31T13:08:09.066Z,3.50
2022-12-31T13:10:36.355Z,3.45
2022-12-31T13:15:51.414Z,3.83
2022-12-31T13:18:18.999Z,4.97
2022-12-31T13:20:46.411Z,3.85
2022-12-31T13:23:14.375Z,3.70
2022-12-31T13:25:41.684Z,4.13
2022-12-31T13:28:08.941Z,3.53
2022-12-31T13:30:36.226Z,4.88
2022-12-31T13:33:03.409Z,3.70
2022-12-31T13:35:30.806Z,4.22
2022-12-31T13:38:03.363Z,4.40
2022-12-31T13:40:32.833Z,5.63
2022-12-31T13:43:00.116Z,6.22
2022-12-31T13:45:27.416Z,4.15
2022-12-31T13:47:54.637Z,3.80
2022-12-31T13:50:21.910Z,4.30
2022-12-31T13:52:49.151Z,4.40
2022-12-31T13:55:16.448Z,5.20
2022-12-31T13:57:43.707Z,5.18
2022-12-31T14:00:10.955Z,3.72
2022-12-31T14:02:38.184Z,3.60
2022-12-31T14:05:05.620Z,4.63
2022-12-31T14:07:38.866Z,3.95
2022-12-31T14:10:07.785Z,3.70
2022-12-31T14:12:34.992Z,4.15
2022-12-31T14:15:02.240Z,3.35
2022-12-31T14:17:30.210Z,3.33
2022-12-31T14:19:57.473Z,5.03
2022-12-31T14:22:24.674Z,3.22
2022-12-31T14:24:53.043Z,3.72
2022-12-31T14:27:20.287Z,4.30
2022-12-31T14:29:47.533Z,3.83
2022-12-31T14:32:14.784Z,4.35
2022-12-31T14:34:42.021Z,4.95
2022-12-31T14:37:09.252Z,6.10
2022-12-31T14:39:36.774Z,5.20
2022-12-31T14:42:04.169Z,5.57
2022-12-31T14:44:31.398Z,6.72
2022-12-31T14:46:58.626Z,7.13
2022-12-31T14:49:25.993Z,8.80
2022-12-31T14:51:53.342Z,6.68
2022-12-31T14:54:24.352Z,8.30
2022-12-31T14:56:54.675Z,8.27
2022-12-31T14:59:22.039Z,8.45
2022-12-31T15:01:49.297Z,8.35
2022-12-31T15:04:16.630Z,7.38
2022-12-31T15:06:43.870Z,5.82
2022-12-31T15:09:11.172Z,7.90
2022-12-31T15:11:38.433Z,6.40
2022-12-31T15:14:05.769Z,8.40
2022-12-31T15:16:33.110Z,9.02
2022-12-31T15:19:01.322Z,7.07
2022-12-31T15:21:28.550Z,8.00
2022-12-31T15:23:55.824Z,6.70
2022-12-31T15:26:23.121Z,9.18
2022-12-31T15:28:50.393Z,8.25
2022-12-31T15:31:19.405Z,10.57
2022-12-31T15:33:47.384Z,6.85
2022-12-31T15:36:14.580Z,7.75
2022-12-31T15:38:41.795Z,9.13
2022-12-31T15:41:08.974Z,6.70
2022-12-31T15:43:36.528Z,6.30
2022-12-31T15:46:05.182Z,7.75
2022-12-31T15:48:32.672Z,7.57
2022-12-31T15:50:59.940Z,7.70
2022-12-31T15:53:27.178Z,7.20
2022-12-31T15:55:54.510Z,6.10
2022-12-31T15:58:21.816Z,7.60
2022-12-31T16:00:49.520Z,6.13
2022-12-31T16:03:16.853Z,7.75
2022-12-31T16:05:44.133Z,7.25
2022-12-31T16:08:11.723Z,8.13
2022-12-31T16:10:38.912Z,9.13
2022-12-31T16:13:06.386Z,7.80
2022-12-31T16:15:33.690Z,6.53
2022-12-31T16:18:01.067Z,9.27
2022-12-31T16:20:30.365Z,7.90
2022-12-31T16:22:57.696Z,7.28
2022-12-31T16:25:33.136Z,7.68
2022-12-31T16:28:00.912Z,7.82
2022-12-31T16:30:28.146Z,7.57
2022-12-31T16:32:55.359Z,10.32
2022-12-31T16:35:23.888Z,6.25
2022-12-31T16:37:51.328Z,10.18
2022-12-31T16:40:18.599Z,7.55
2022-12-31T16:42:45.923Z,6.90
2022-12-31T16:45:13.337Z,8.82
2022-12-31T16:47:40.593Z,7.20
2022-12-31T16:50:08.142Z,8.50
2022-12-31T16:52:35.429Z,8.15
2022-12-31T16:55:02.704Z,6.57
2022-12-31T16:57:30.020Z,8.32
2022-12-31T16:59:57.243Z,8.32
2022-12-31T17:02:24.511Z,9.45
2022-12-31T17:04:56.149Z,6.93
2022-12-31T17:07:23.647Z,8.68
2022-12-31T17:09:50.807Z,7.47
2022-12-31T17:12:18.156Z,8.88
2022-12-31T17:14:45.341Z,8.00
2022-12-31T17:17:12.663Z,8.40
2022-12-31T17:19:39.933Z,9.48
2022-12-31T17:22:07.176Z,9.27
2022-12-31T17:24:34.447Z,6.97
2022-12-31T17:27:01.907Z,10.75
2022-12-31T17:29:29.063Z,9.38
2022-12-31T17:31:56.286Z,7.93
2022-12-31T17:34:23.490Z,5.70
2022-12-31T17:36:50.865Z,7.60
2022-12-31T17:39:18.115Z,6.25
2022-12-31T17:41:45.513Z,8.77
2022-12-31T17:44:12.931Z,5.90
2022-12-31T17:46:40.235Z,8.10
2022-12-31T17:49:07.487Z,5.95
2022-12-31T17:51:34.855Z,6.60
2022-12-31T17:54:02.255Z,7.25
2022-12-31T17:56:29.579Z,8.32
2022-12-31T17:58:56.913Z,5.28
2022-12-31T18:01:24.412Z,8.98
2022-12-31T18:03:51.772Z,6.65
2022-12-31T18:06:22.441Z,8.10
2022-12-31T18:08:49.666Z,7.22
2022-12-31T18:11:16.970Z,6.90
2022-12-31T18:13:44.223Z,10.23
2022-12-31T18:16:11.430Z,5.85
2022-12-31T18:18:40.174Z,7.00
2022-12-31T18:21:07.527Z,8.25
2022-12-31T18:23:34.830Z,8.45
2022-12-31T18:26:02.046Z,8.63
2022-12-31T18:28:29.322Z,6.07
2022-12-31T18:30:56.594Z,5.97
2022-12-31T18:33:25.223Z,8.13
2022-12-31T18:36:09.669Z,11.07
2022-12-31T18:38:37.612Z,6.88
2022-12-31T18:41:04.851Z,7.70
2022-12-31T18:43:32.106Z,7.70
2022-12-31T18:45:59.361Z,6.90
2022-12-31T18:48:26.665Z,8.45
2022-12-31T18:50:53.858Z,7.85
2022-12-31T18:53:21.165Z,8.95
2022-12-31T18:55:48.439Z,5.78
2022-12-31T18:58:15.733Z,8.57
2022-12-31T19:00:43.052Z,9.07
2022-12-31T19:03:10.396Z,9.13
2022-12-31T19:05:37.753Z,9.05
2022-12-31T19:08:05.063Z,8.60
2022-12-31T19:10:32.289Z,8.27
2022-12-31T19:12:59.500Z,7.38
2022-12-31T19:15:26.732Z,7.78
2022-12-31T19:17:54.056Z,8.93
2022-12-31T19:20:21.290Z,9.23
2022-12-31T19:22:48.598Z,7.05
2022-12-31T19:25:15.869Z,6.18
2022-12-31T19:27:43.240Z,8.02
2022-12-31T19:30:10.473Z,7.07
2022-12-31T19:32:37.690Z,8.00
2022-12-31T19:35:04.879Z,6.13
2022-12-31T19:37:32.237Z,6.65
2022-12-31T19:39:59.511Z,7.35
2022-12-31T19:42:27.119Z,9.90
2022-12-31T19:44:54.324Z,9.80
2022-12-31T19:47:21.588Z,7.85
2022-12-31T19:49:48.946Z,7.78
2022-12-31T19:52:16.431Z,7.32
2022-12-31T19:54:43.638Z,8.25
2022-12-31T19:57:10.855Z,8.38
2022-12-31T19:59:38.138Z,7.05
2022-12-31T20:02:05.500Z,6.10
2022-12-31T20:04:32.931Z,7.82
2022-12-31T20:07:00.194Z,11.18
2022-12-31T20:09:27.378Z,8.48
2022-12-31T20:11:54.591Z,6.22
2022-12-31T20:14:21.803Z,7.55
2022-12-31T20:16:49.188Z,8.18
2022-12-31T20:19:16.369Z,6.07
2022-12-31T20:21:44.993Z,7.43
2022-12-31T20:24:12.199Z,5.60
2022-12-31T20:26:39.541Z,7.93
2022-12-31T20:29:06.922Z,7.32
2022-12-31T20:31:34.152Z,6.88
2022-12-31T20:34:04.398Z,8.00
2022-12-31T20:36:31.676Z,7.93
2022-12-31T20:38:58.994Z,4.85
2022-12-31T20:41:27.332Z,9.43
2022-12-31T20:43:54.569Z,6.93
2022-12-31T20:46:21.947Z,5.78
2022-12-31T20:48:49.309Z,7.47
2022-12-31T20:51:16.622Z,7.28
2022-12-31T20:53:43.783Z,8.57
2022-12-31T20:56:11.109Z,6.43
2022-12-31T20:58:38.379Z,5.88
2022-12-31T21:01:05.729Z,5.05
2022-12-31T21:06:20.291Z,5.88
2022-12-31T21:08:47.648Z,5.07
2022-12-31T21:11:33.841Z,6.07
2022-12-31T21:14:01.093Z,5.78
2022-12-31T21:16:28.408Z,4.95
2022-12-31T21:18:55.662Z,5.38
2022-12-31T21:21:22.867Z,3.83
2022-12-31T21:23:50.207Z,6.75
2022-12-31T21:26:17.409Z,4.07
2022-12-31T21:28:44.759Z,4.10
2022-12-31T21:31:12.008Z,3.50
2022-12-31T21:33:39.568Z,4.30
2022-12-31T21:36:06.843Z,4.38
2022-12-31T21:38:34.089Z,8.30
2022-12-31T21:41:01.936Z,4.22
2022-12-31T21:43:29.257Z,3.58
2022-12-31T21:45:56.533Z,6.20
2022-12-31T21:48:25.121Z,4.05
2022-12-31T21:50:52.457Z,3.40
2022-12-31T21:53:24.170Z,3.50
2022-12-31T21:56:09.583Z,3.90
2022-12-31T21:58:36.924Z,4.03
2022-12-31T22:01:23.024Z,3.42
2022-12-31T22:03:50.454Z,4.10
2022-12-31T22:06:20.529Z,5.93
2022-12-31T22:08:47.894Z,2.78
2022-12-31T22:11:15.167Z,3.78
2022-12-31T22:13:42.435Z,3.67
2022-12-31T22:16:09.692Z,3.60
2022-12-31T22:18:38.903Z,3.25
2022-12-31T22:21:09.601Z,3.33
2022-12-31T22:23:41.221Z,3.58
2022-12-31T22:26:08.834Z,4.28
2022-12-31T22:28:38.720Z,3.60
2022-12-31T22:31:07.052Z,2.80
2022-12-31T22:33:34.295Z,2.95
2022-12-31T22:36:01.624Z,3.15
2022-12-31T22:38:28.795Z,3.38
2022-12-31T22:40:56.222Z,3.75
2022-12-31T22:43:23.459Z,4.25
2022-12-31T22:45:50.763Z,3.47
2022-12-31T22:48:18.016Z,2.95
2022-12-31T22:50:45.222Z,2.97
2022-12-31T22:53:12.501Z,2.78
2022-12-31T22:55:39.701Z,2.63
2022-12-31T22:58:06.984Z,3.17
2022-12-31T23:00:34.300Z,2.83
2022-12-31T23:03:01.701Z,2.40
2022-12-31T23:05:28.937Z,2.88
2022-12-31T23:07:59.080Z,3.15
2022-12-31T23:10:45.074Z,3.00
2022-12-31T23:13:31.238Z,2.20
2022-12-31T23:16:17.310Z,2.53
2022-12-31T23:19:05.569Z,2.58
2022-12-31T23:21:51.792Z,2.00
2022-12-31T23:24:24.525Z,2.40
2022-12-31T23:26:53.482Z,2.55
2022-12-31T23:29:20.731Z,3.63
2022-12-31T23:31:48.103Z,3.08
2022-12-31T23:34:16.004Z,1.85
2022-12-31T23:36:43.260Z,2.53
2022-12-31T23:39:10.586Z,1.67
2022-12-31T23:41:37.841Z,2.25
2022-12-31T23:44:05.255Z,2.30
2022-12-31T23:46:32.569Z,1.52
2022-12-31T23:48:59.907Z,1.58
2022-12-31T23:51:27.220Z,2.17
2022-12-31T23:53:54.399Z,1.90
2022-12-31T23:56:23.985Z,1.70
2022-12-31T23:58:51.606Z,1.83
